Ancramdale, NY

12:22 PM EDT on August 29, 2016 (GMT -0400)
Prospect Hill | | Change Station

Elev 663 ft 41.98 °N, 73.61 °W | Updated 4 minutes ago

Partly Cloudy
Partly Cloudy
81.9 °F
Feels Like 83 °F
N
10.9
Wind Variable Wind from ENE

Today
High -- | Low -- °F
--% Chance of Precip.
Yesterday
High -- | Low -- °F
Precip. -- in
Pressure 30.10 in
Visibility 10.0 miles
Clouds Few 3800 ft
Heat Index 83 °F
Dew Point 62 °F
Humidity 51%
Rainfall 0.00 in
Snow Depth Not available.
6:17 AM 7:32 PM
Waning Crescent, 8% visible
METAR KPOU 291553Z 34007KT 10SM FEW038 29/17 A3011 RMK AO2 SLP192 T02890172
Pressure 30.10 in
Visibility 10.0 miles
Clouds Few 3800 ft
Heat Index 83 °F
Dew Point 62 °F
Humidity 51%
Rainfall 0.00 in
Snow Depth Not available.
6:17 AM 7:32 PM
Waning Crescent, 8% visible
METAR KPOU 291553Z 34007KT 10SM FEW038 29/17 A3011 RMK AO2 SLP192 T02890172

10-Day Weather Forecast

Almanac

Astronomy

Aug. 29, 2016 Rise Set
Actual Time
Civil Twilight
Nautical Twilight
Astronomical Twilight
Moon
Length of Visible Light
Length of Day
Tomorrow will be .
, % of the Moon is Illuminated

Today's Extremes

State Highs State Lows

Community

WunderPhotos

Upload Photos

1,935,867 photos uploaded!

WunderBlog® & News

Nearby

Air Quality

  Air Quality AQ Index Pollutant
Not available.

Snow Depth

Station Depth Elevation

Earthquake Activity

City Distance Mag. Time & Date
Minimum magnitude displayed is 2.5.

Coastal Water Temperatures

Place Temperature

Stations

Nearby Weather Stations

Station Location Temp. Windchill Dew Point Humidity Wind Precip. Elev Updated Type
                   

Watches & Warnings

There are currently no watches in effect.